sensor_id;sensor_type;location;lat;lon;timestamp;temperature;humidity
27567;DHT22;15006;48.584;9.186;2023-06-10T00:00:43;14.50;58.20
27567;DHT22;15006;48.584;9.186;2023-06-10T00:03:10;14.40;58.20
27567;DHT22;15006;48.584;9.186;2023-06-10T00:05:37;14.30;58.10
27567;DHT22;15006;48.584;9.186;2023-06-10T00:08:08;14.30;58.20
27567;DHT22;15006;48.584;9.186;2023-06-10T00:10:35;14.20;59.00
27567;DHT22;15006;48.584;9.186;2023-06-10T00:13:05;14.20;58.60
27567;DHT22;15006;48.584;9.186;2023-06-10T00:15:34;14.20;58.70
27567;DHT22;15006;48.584;9.186;2023-06-10T00:18:01;14.10;58.90
27567;DHT22;15006;48.584;9.186;2023-06-10T00:20:30;14.10;58.80
27567;DHT22;15006;48.584;9.186;2023-06-10T00:22:58;14.00;59.00
27567;DHT22;15006;48.584;9.186;2023-06-10T00:25:26;14.00;59.30
27567;DHT22;15006;48.584;9.186;2023-06-10T00:27:52;14.00;58.80
27567;DHT22;15006;48.584;9.186;2023-06-10T00:30:18;13.90;58.60
27567;DHT22;15006;48.584;9.186;2023-06-10T00:32:44;13.80;58.60
27567;DHT22;15006;48.584;9.186;2023-06-10T00:35:10;13.80;58.60
27567;DHT22;15006;48.584;9.186;2023-06-10T00:37:36;13.70;58.70
27567;DHT22;15006;48.584;9.186;2023-06-10T00:40:04;13.60;59.00
27567;DHT22;15006;48.584;9.186;2023-06-10T00:42:31;13.60;59.30
27567;DHT22;15006;48.584;9.186;2023-06-10T00:44:57;13.50;59.60
27567;DHT22;15006;48.584;9.186;2023-06-10T00:47:23;13.50;60.00
27567;DHT22;15006;48.584;9.186;2023-06-10T00:49:50;13.40;60.30
27567;DHT22;15006;48.584;9.186;2023-06-10T00:52:17;13.40;60.50
27567;DHT22;15006;48.584;9.186;2023-06-10T00:54:45;13.30;60.70
27567;DHT22;15006;48.584;9.186;2023-06-10T00:57:12;13.30;60.90
27567;DHT22;15006;48.584;9.186;2023-06-10T00:59:48;13.30;61.00
27567;DHT22;15006;48.584;9.186;2023-06-10T01:02:15;13.20;61.60
27567;DHT22;15006;48.584;9.186;2023-06-10T01:04:41;13.20;61.10
27567;DHT22;15006;48.584;9.186;2023-06-10T01:07:27;13.20;61.20
27567;DHT22;15006;48.584;9.186;2023-06-10T01:10:15;13.20;62.50
27567;DHT22;15006;48.584;9.186;2023-06-10T01:12:49;13.10;62.70
27567;DHT22;15006;48.584;9.186;2023-06-10T01:15:22;13.10;62.30
27567;DHT22;15006;48.584;9.186;2023-06-10T01:17:55;13.10;62.10
27567;DHT22;15006;48.584;9.186;2023-06-10T01:20:32;13.10;63.20
27567;DHT22;15006;48.584;9.186;2023-06-10T01:22:59;13.10;62.70
27567;DHT22;15006;48.584;9.186;2023-06-10T01:25:27;13.00;63.00
27567;DHT22;15006;48.584;9.186;2023-06-10T01:28:17;13.00;63.30
27567;DHT22;15006;48.584;9.186;2023-06-10T01:31:10;13.10;64.30
27567;DHT22;15006;48.584;9.186;2023-06-10T01:33:47;13.00;64.00
27567;DHT22;15006;48.584;9.186;2023-06-10T01:36:16;13.00;63.90
27567;DHT22;15006;48.584;9.186;2023-06-10T01:38:44;13.00;63.70
27567;DHT22;15006;48.584;9.186;2023-06-10T01:41:17;13.00;63.60
27567;DHT22;15006;48.584;9.186;2023-06-10T01:43:44;12.90;64.10
27567;DHT22;15006;48.584;9.186;2023-06-10T01:46:11;12.90;63.40
27567;DHT22;15006;48.584;9.186;2023-06-10T01:48:37;12.90;63.20
27567;DHT22;15006;48.584;9.186;2023-06-10T01:51:05;12.80;63.30
27567;DHT22;15006;48.584;9.186;2023-06-10T01:53:31;12.80;63.70
27567;DHT22;15006;48.584;9.186;2023-06-10T01:55:57;12.70;63.90
27567;DHT22;15006;48.584;9.186;2023-06-10T01:58:23;12.70;64.20
27567;DHT22;15006;48.584;9.186;2023-06-10T02:00:49;12.70;64.00
27567;DHT22;15006;48.584;9.186;2023-06-10T02:03:15;12.60;63.60
27567;DHT22;15006;48.584;9.186;2023-06-10T02:05:41;12.50;63.60
27567;DHT22;15006;48.584;9.186;2023-06-10T02:08:07;12.50;64.20
27567;DHT22;15006;48.584;9.186;2023-06-10T02:10:33;12.50;64.60
27567;DHT22;15006;48.584;9.186;2023-06-10T02:12:59;12.40;65.00
27567;DHT22;15006;48.584;9.186;2023-06-10T02:15:25;12.30;65.30
27567;DHT22;15006;48.584;9.186;2023-06-10T02:17:52;12.30;65.70
27567;DHT22;15006;48.584;9.186;2023-06-10T02:20:18;12.20;66.00
27567;DHT22;15006;48.584;9.186;2023-06-10T02:22:44;12.20;66.30
27567;DHT22;15006;48.584;9.186;2023-06-10T02:25:10;12.20;66.50
27567;DHT22;15006;48.584;9.186;2023-06-10T02:27:37;12.10;66.70
27567;DHT22;15006;48.584;9.186;2023-06-10T02:30:03;12.10;66.60
27567;DHT22;15006;48.584;9.186;2023-06-10T02:32:30;12.10;66.80
27567;DHT22;15006;48.584;9.186;2023-06-10T02:34:56;12.00;67.00
27567;DHT22;15006;48.584;9.186;2023-06-10T02:37:23;12.00;67.60
27567;DHT22;15006;48.584;9.186;2023-06-10T02:39:49;12.00;67.40
27567;DHT22;15006;48.584;9.186;2023-06-10T02:42:15;12.00;67.60
27567;DHT22;15006;48.584;9.186;2023-06-10T02:44:41;12.00;67.90
27567;DHT22;15006;48.584;9.186;2023-06-10T02:47:07;12.00;68.10
27567;DHT22;15006;48.584;9.186;2023-06-10T02:49:33;12.00;68.30
27567;DHT22;15006;48.584;9.186;2023-06-10T02:52:00;12.00;68.30
27567;DHT22;15006;48.584;9.186;2023-06-10T02:54:26;12.00;68.30
27567;DHT22;15006;48.584;9.186;2023-06-10T02:56:52;12.00;68.30
27567;DHT22;15006;48.584;9.186;2023-06-10T02:59:21;12.00;68.40
27567;DHT22;15006;48.584;9.186;2023-06-10T03:01:47;12.00;68.40
27567;DHT22;15006;48.584;9.186;2023-06-10T03:04:13;12.00;68.60
27567;DHT22;15006;48.584;9.186;2023-06-10T03:06:40;12.10;68.80
27567;DHT22;15006;48.584;9.186;2023-06-10T03:09:06;12.10;68.80
27567;DHT22;15006;48.584;9.186;2023-06-10T03:11:35;12.10;68.80
27567;DHT22;15006;48.584;9.186;2023-06-10T03:14:02;12.20;68.60
27567;DHT22;15006;48.584;9.186;2023-06-10T03:16:28;12.20;68.70
27567;DHT22;15006;48.584;9.186;2023-06-10T03:18:55;12.20;68.70
27567;DHT22;15006;48.584;9.186;2023-06-10T03:21:21;12.10;68.20
27567;DHT22;15006;48.584;9.186;2023-06-10T03:23:47;12.10;68.00
27567;DHT22;15006;48.584;9.186;2023-06-10T03:26:13;12.10;68.00
27567;DHT22;15006;48.584;9.186;2023-06-10T03:28:41;12.00;68.00
27567;DHT22;15006;48.584;9.186;2023-06-10T03:31:07;12.00;68.30
27567;DHT22;15006;48.584;9.186;2023-06-10T03:33:33;12.00;68.20
27567;DHT22;15006;48.584;9.186;2023-06-10T03:35:59;12.00;68.30
27567;DHT22;15006;48.584;9.186;2023-06-10T03:38:26;11.90;68.20
27567;DHT22;15006;48.584;9.186;2023-06-10T03:40:52;11.90;68.40
27567;DHT22;15006;48.584;9.186;2023-06-10T03:43:18;11.80;68.80
27567;DHT22;15006;48.584;9.186;2023-06-10T03:45:44;11.80;69.20
27567;DHT22;15006;48.584;9.186;2023-06-10T03:48:10;11.70;69.50
27567;DHT22;15006;48.584;9.186;2023-06-10T03:50:37;11.70;69.80
27567;DHT22;15006;48.584;9.186;2023-06-10T03:53:03;11.70;70.00
27567;DHT22;15006;48.584;9.186;2023-06-10T03:55:29;11.60;70.30
27567;DHT22;15006;48.584;9.186;2023-06-10T03:57:55;11.60;70.50
27567;DHT22;15006;48.584;9.186;2023-06-10T04:00:21;11.60;70.80
27567;DHT22;15006;48.584;9.186;2023-06-10T04:02:47;11.60;71.00
27567;DHT22;15006;48.584;9.186;2023-06-10T04:05:16;11.60;71.20
27567;DHT22;15006;48.584;9.186;2023-06-10T04:07:42;11.60;71.40
27567;DHT22;15006;48.584;9.186;2023-06-10T04:10:11;11.70;71.50
27567;DHT22;15006;48.584;9.186;2023-06-10T04:12:37;11.70;71.70
27567;DHT22;15006;48.584;9.186;2023-06-10T04:15:04;11.60;71.70
27567;DHT22;15006;48.584;9.186;2023-06-10T04:17:31;11.70;71.90
27567;DHT22;15006;48.584;9.186;2023-06-10T04:19:57;11.70;72.00
27567;DHT22;15006;48.584;9.186;2023-06-10T04:22:26;11.70;72.10
27567;DHT22;15006;48.584;9.186;2023-06-10T04:24:52;11.80;72.30
27567;DHT22;15006;48.584;9.186;2023-06-10T04:27:18;11.80;72.40
27567;DHT22;15006;48.584;9.186;2023-06-10T04:29:45;11.90;72.60
27567;DHT22;15006;48.584;9.186;2023-06-10T04:32:11;11.90;72.70
27567;DHT22;15006;48.584;9.186;2023-06-10T04:34:37;12.00;73.10
27567;DHT22;15006;48.584;9.186;2023-06-10T04:37:06;12.00;73.30
27567;DHT22;15006;48.584;9.186;2023-06-10T04:39:32;12.10;73.50
27567;DHT22;15006;48.584;9.186;2023-06-10T04:41:58;12.20;73.40
27567;DHT22;15006;48.584;9.186;2023-06-10T04:44:25;12.30;73.50
27567;DHT22;15006;48.584;9.186;2023-06-10T04:46:51;12.40;73.40
27567;DHT22;15006;48.584;9.186;2023-06-10T04:49:17;12.50;73.40
27567;DHT22;15006;48.584;9.186;2023-06-10T04:51:43;12.60;73.30
27567;DHT22;15006;48.584;9.186;2023-06-10T04:54:09;12.70;73.40
27567;DHT22;15006;48.584;9.186;2023-06-10T04:56:35;12.80;73.50
27567;DHT22;15006;48.584;9.186;2023-06-10T04:59:02;12.90;73.60
27567;DHT22;15006;48.584;9.186;2023-06-10T05:01:28;13.10;73.70
27567;DHT22;15006;48.584;9.186;2023-06-10T05:03:54;13.20;73.90
27567;DHT22;15006;48.584;9.186;2023-06-10T05:06:20;13.40;73.80
27567;DHT22;15006;48.584;9.186;2023-06-10T05:08:46;13.60;73.60
27567;DHT22;15006;48.584;9.186;2023-06-10T05:11:12;13.70;73.40
27567;DHT22;15006;48.584;9.186;2023-06-10T05:13:38;13.80;73.10
27567;DHT22;15006;48.584;9.186;2023-06-10T05:16:05;14.00;72.90
27567;DHT22;15006;48.584;9.186;2023-06-10T05:18:33;14.20;72.40
27567;DHT22;15006;48.584;9.186;2023-06-10T05:21:02;14.30;71.70
27567;DHT22;15006;48.584;9.186;2023-06-10T05:23:28;14.50;71.10
27567;DHT22;15006;48.584;9.186;2023-06-10T05:25:54;14.60;70.90
27567;DHT22;15006;48.584;9.186;2023-06-10T05:28:21;14.80;70.50
27567;DHT22;15006;48.584;9.186;2023-06-10T05:30:48;15.00;70.00
27567;DHT22;15006;48.584;9.186;2023-06-10T05:33:14;15.10;69.30
27567;DHT22;15006;48.584;9.186;2023-06-10T05:35:40;15.30;69.20
27567;DHT22;15006;48.584;9.186;2023-06-10T05:38:07;15.50;68.80
27567;DHT22;15006;48.584;9.186;2023-06-10T05:40:33;15.60;68.70
27567;DHT22;15006;48.584;9.186;2023-06-10T05:42:59;15.80;68.60
27567;DHT22;15006;48.584;9.186;2023-06-10T05:45:25;15.90;68.00
27567;DHT22;15006;48.584;9.186;2023-06-10T05:47:51;16.00;67.70
27567;DHT22;15006;48.584;9.186;2023-06-10T05:50:17;16.20;67.30
27567;DHT22;15006;48.584;9.186;2023-06-10T05:52:43;16.30;66.70
27567;DHT22;15006;48.584;9.186;2023-06-10T05:55:09;16.40;66.50
27567;DHT22;15006;48.584;9.186;2023-06-10T05:57:35;16.60;66.00
27567;DHT22;15006;48.584;9.186;2023-06-10T06:00:02;16.70;65.50
27567;DHT22;15006;48.584;9.186;2023-06-10T06:02:29;16.80;65.20
27567;DHT22;15006;48.584;9.186;2023-06-10T06:04:55;16.90;64.80
27567;DHT22;15006;48.584;9.186;2023-06-10T06:07:21;17.10;64.30
27567;DHT22;15006;48.584;9.186;2023-06-10T06:09:48;17.20;64.20
27567;DHT22;15006;48.584;9.186;2023-06-10T06:12:14;17.30;63.90
27567;DHT22;15006;48.584;9.186;2023-06-10T06:14:40;17.50;63.90
27567;DHT22;15006;48.584;9.186;2023-06-10T06:17:06;17.60;63.10
27567;DHT22;15006;48.584;9.186;2023-06-10T06:19:33;17.80;62.30
27567;DHT22;15006;48.584;9.186;2023-06-10T06:21:59;18.00;61.90
27567;DHT22;15006;48.584;9.186;2023-06-10T06:24:26;18.00;61.20
27567;DHT22;15006;48.584;9.186;2023-06-10T06:26:52;18.20;61.00
27567;DHT22;15006;48.584;9.186;2023-06-10T06:29:18;18.40;60.70
27567;DHT22;15006;48.584;9.186;2023-06-10T06:31:45;18.50;60.40
27567;DHT22;15006;48.584;9.186;2023-06-10T06:34:11;18.70;60.00
27567;DHT22;15006;48.584;9.186;2023-06-10T06:36:39;18.80;59.90
27567;DHT22;15006;48.584;9.186;2023-06-10T06:39:05;19.00;59.60
27567;DHT22;15006;48.584;9.186;2023-06-10T06:41:32;19.20;59.20
27567;DHT22;15006;48.584;9.186;2023-06-10T06:43:58;19.30;59.20
27567;DHT22;15006;48.584;9.186;2023-06-10T06:46:24;19.50;58.40
27567;DHT22;15006;48.584;9.186;2023-06-10T06:48:53;19.60;57.80
27567;DHT22;15006;48.584;9.186;2023-06-10T06:51:19;19.80;57.60
27567;DHT22;15006;48.584;9.186;2023-06-10T06:53:45;19.90;57.20
27567;DHT22;15006;48.584;9.186;2023-06-10T06:56:12;20.00;56.90
27567;DHT22;15006;48.584;9.186;2023-06-10T06:58:38;20.20;57.00
27567;DHT22;15006;48.584;9.186;2023-06-10T07:01:05;20.30;56.40
27567;DHT22;15006;48.584;9.186;2023-06-10T07:03:32;20.50;56.40
27567;DHT22;15006;48.584;9.186;2023-06-10T07:05:59;20.60;56.30
27567;DHT22;15006;48.584;9.186;2023-06-10T07:08:25;20.80;55.90
27567;DHT22;15006;48.584;9.186;2023-06-10T07:10:52;20.90;55.50
27567;DHT22;15006;48.584;9.186;2023-06-10T07:13:19;21.10;55.40
27567;DHT22;15006;48.584;9.186;2023-06-10T07:15:46;21.30;55.10
27567;DHT22;15006;48.584;9.186;2023-06-10T07:18:12;21.50;54.50
27567;DHT22;15006;48.584;9.186;2023-06-10T07:20:38;21.60;54.10
27567;DHT22;15006;48.584;9.186;2023-06-10T07:23:04;21.90;53.90
27567;DHT22;15006;48.584;9.186;2023-06-10T07:25:31;22.00;53.70
27567;DHT22;15006;48.584;9.186;2023-06-10T07:27:57;22.20;53.40
27567;DHT22;15006;48.584;9.186;2023-06-10T07:30:24;22.30;53.10
27567;DHT22;15006;48.584;9.186;2023-06-10T07:32:51;22.50;52.80
27567;DHT22;15006;48.584;9.186;2023-06-10T07:35:18;22.70;52.40
27567;DHT22;15006;48.584;9.186;2023-06-10T07:37:44;22.90;52.00
27567;DHT22;15006;48.584;9.186;2023-06-10T07:40:11;23.10;51.60
27567;DHT22;15006;48.584;9.186;2023-06-10T07:42:37;23.30;51.40
27567;DHT22;15006;48.584;9.186;2023-06-10T07:45:04;23.50;50.40
27567;DHT22;15006;48.584;9.186;2023-06-10T07:47:33;23.70;50.10
27567;DHT22;15006;48.584;9.186;2023-06-10T07:50:00;24.00;49.80
27567;DHT22;15006;48.584;9.186;2023-06-10T07:52:27;24.10;49.60
27567;DHT22;15006;48.584;9.186;2023-06-10T07:54:54;24.30;48.90
27567;DHT22;15006;48.584;9.186;2023-06-10T07:57:20;24.50;48.70
27567;DHT22;15006;48.584;9.186;2023-06-10T07:59:46;24.70;48.30
27567;DHT22;15006;48.584;9.186;2023-06-10T08:02:13;24.90;47.50
27567;DHT22;15006;48.584;9.186;2023-06-10T08:04:38;25.10;47.20
27567;DHT22;15006;48.584;9.186;2023-06-10T08:07:05;25.30;47.00
27567;DHT22;15006;48.584;9.186;2023-06-10T08:09:31;25.50;46.10
27567;DHT22;15006;48.584;9.186;2023-06-10T08:11:57;25.60;46.10
27567;DHT22;15006;48.584;9.186;2023-06-10T08:14:23;25.80;45.40
27567;DHT22;15006;48.584;9.186;2023-06-10T08:16:49;26.00;44.80
27567;DHT22;15006;48.584;9.186;2023-06-10T08:19:15;26.20;44.50
27567;DHT22;15006;48.584;9.186;2023-06-10T08:21:41;26.30;43.90
27567;DHT22;15006;48.584;9.186;2023-06-10T08:24:07;26.50;43.70
27567;DHT22;15006;48.584;9.186;2023-06-10T08:26:33;26.60;43.30
27567;DHT22;15006;48.584;9.186;2023-06-10T08:28:59;26.70;43.20
27567;DHT22;15006;48.584;9.186;2023-06-10T08:31:25;26.80;43.00
27567;DHT22;15006;48.584;9.186;2023-06-10T08:33:51;27.00;42.60
27567;DHT22;15006;48.584;9.186;2023-06-10T08:36:18;27.10;42.80
27567;DHT22;15006;48.584;9.186;2023-06-10T08:38:44;27.20;42.00
27567;DHT22;15006;48.584;9.186;2023-06-10T08:41:12;27.40;42.00
27567;DHT22;15006;48.584;9.186;2023-06-10T08:43:52;27.50;41.00
27567;DHT22;15006;48.584;9.186;2023-06-10T08:46:25;27.60;40.50
27567;DHT22;15006;48.584;9.186;2023-06-10T08:48:55;27.70;40.70
27567;DHT22;15006;48.584;9.186;2023-06-10T08:51:23;27.80;40.10
27567;DHT22;15006;48.584;9.186;2023-06-10T08:53:58;27.90;40.30
27567;DHT22;15006;48.584;9.186;2023-06-10T08:56:29;28.10;40.30
27567;DHT22;15006;48.584;9.186;2023-06-10T08:58:57;28.20;40.20
27567;DHT22;15006;48.584;9.186;2023-06-10T09:01:25;28.30;39.70
27567;DHT22;15006;48.584;9.186;2023-06-10T09:03:52;28.40;39.70
27567;DHT22;15006;48.584;9.186;2023-06-10T09:06:18;28.60;39.00
27567;DHT22;15006;48.584;9.186;2023-06-10T09:08:45;28.70;38.30
27567;DHT22;15006;48.584;9.186;2023-06-10T09:11:11;28.80;38.20
27567;DHT22;15006;48.584;9.186;2023-06-10T09:13:37;28.80;38.50
27567;DHT22;15006;48.584;9.186;2023-06-10T09:16:03;28.80;38.50
27567;DHT22;15006;48.584;9.186;2023-06-10T09:18:30;28.90;38.20
27567;DHT22;15006;48.584;9.186;2023-06-10T09:20:56;29.00;38.10
27567;DHT22;15006;48.584;9.186;2023-06-10T09:23:22;29.00;38.00
27567;DHT22;15006;48.584;9.186;2023-06-10T09:25:56;29.10;37.60
27567;DHT22;15006;48.584;9.186;2023-06-10T09:28:26;29.20;36.80
27567;DHT22;15006;48.584;9.186;2023-06-10T09:31:02;29.30;37.20
27567;DHT22;15006;48.584;9.186;2023-06-10T09:33:33;29.40;37.10
27567;DHT22;15006;48.584;9.186;2023-06-10T09:36:04;29.50;37.20
27567;DHT22;15006;48.584;9.186;2023-06-10T09:38:33;29.60;36.20
27567;DHT22;15006;48.584;9.186;2023-06-10T09:41:00;29.70;36.40
27567;DHT22;15006;48.584;9.186;2023-06-10T09:43:44;29.80;36.80
27567;DHT22;15006;48.584;9.186;2023-06-10T09:46:19;29.90;36.20
27567;DHT22;15006;48.584;9.186;2023-06-10T09:48:47;30.10;36.00
27567;DHT22;15006;48.584;9.186;2023-06-10T09:51:16;30.20;36.00
27567;DHT22;15006;48.584;9.186;2023-06-10T09:53:48;30.30;36.10
27567;DHT22;15006;48.584;9.186;2023-06-10T09:56:17;30.40;34.90
27567;DHT22;15006;48.584;9.186;2023-06-10T09:58:44;30.50;35.30
27567;DHT22;15006;48.584;9.186;2023-06-10T10:01:13;30.60;35.00
27567;DHT22;15006;48.584;9.186;2023-06-10T10:03:49;30.70;34.60
27567;DHT22;15006;48.584;9.186;2023-06-10T10:06:16;30.80;34.00
27567;DHT22;15006;48.584;9.186;2023-06-10T10:08:50;30.90;33.60
27567;DHT22;15006;48.584;9.186;2023-06-10T10:11:18;30.90;33.50
27567;DHT22;15006;48.584;9.186;2023-06-10T10:13:45;31.00;33.50
27567;DHT22;15006;48.584;9.186;2023-06-10T10:16:23;31.00;33.80
27567;DHT22;15006;48.584;9.186;2023-06-10T10:19:00;31.00;33.60
27567;DHT22;15006;48.584;9.186;2023-06-10T10:24:19;30.80;32.70
27567;DHT22;15006;48.584;9.186;2023-06-10T10:26:48;30.80;33.70
27567;DHT22;15006;48.584;9.186;2023-06-10T10:29:31;30.70;33.70
27567;DHT22;15006;48.584;9.186;2023-06-10T10:32:01;30.70;33.50
27567;DHT22;15006;48.584;9.186;2023-06-10T10:34:37;30.70;34.50
27567;DHT22;15006;48.584;9.186;2023-06-10T10:37:24;30.70;33.30
27567;DHT22;15006;48.584;9.186;2023-06-10T10:39:51;30.80;33.40
27567;DHT22;15006;48.584;9.186;2023-06-10T10:42:18;30.90;32.70
27567;DHT22;15006;48.584;9.186;2023-06-10T10:44:44;31.10;32.80
27567;DHT22;15006;48.584;9.186;2023-06-10T10:47:11;31.10;32.60
27567;DHT22;15006;48.584;9.186;2023-06-10T10:49:39;31.20;32.50
27567;DHT22;15006;48.584;9.186;2023-06-10T10:52:11;31.30;31.50
27567;DHT22;15006;48.584;9.186;2023-06-10T10:54:48;31.30;31.50
27567;DHT22;15006;48.584;9.186;2023-06-10T10:57:21;31.30;32.00
27567;DHT22;15006;48.584;9.186;2023-06-10T10:59:58;31.30;32.50
27567;DHT22;15006;48.584;9.186;2023-06-10T11:05:10;31.70;33.70
27567;DHT22;15006;48.584;9.186;2023-06-10T11:07:38;31.90;32.30
27567;DHT22;15006;48.584;9.186;2023-06-10T11:10:12;32.10;31.50
27567;DHT22;15006;48.584;9.186;2023-06-10T11:12:51;32.10;30.90
27567;DHT22;15006;48.584;9.186;2023-06-10T11:15:22;32.00;30.20
27567;DHT22;15006;48.584;9.186;2023-06-10T11:21:02;31.60;30.60
27567;DHT22;15006;48.584;9.186;2023-06-10T11:26:13;31.40;31.50
27567;DHT22;15006;48.584;9.186;2023-06-10T11:31:38;31.50;31.20
27567;DHT22;15006;48.584;9.186;2023-06-10T11:34:06;31.70;31.50
27567;DHT22;15006;48.584;9.186;2023-06-10T11:36:34;31.80;31.80
27567;DHT22;15006;48.584;9.186;2023-06-10T11:39:05;31.90;31.20
27567;DHT22;15006;48.584;9.186;2023-06-10T11:41:32;32.00;30.90
27567;DHT22;15006;48.584;9.186;2023-06-10T11:44:13;32.00;30.80
27567;DHT22;15006;48.584;9.186;2023-06-10T11:46:40;31.90;30.30
27567;DHT22;15006;48.584;9.186;2023-06-10T11:49:08;31.80;30.90
27567;DHT22;15006;48.584;9.186;2023-06-10T11:51:36;31.70;31.00
27567;DHT22;15006;48.584;9.186;2023-06-10T11:54:04;31.60;30.90
27567;DHT22;15006;48.584;9.186;2023-06-10T11:56:31;31.70;30.80
27567;DHT22;15006;48.584;9.186;2023-06-10T11:58:59;31.60;30.70
27567;DHT22;15006;48.584;9.186;2023-06-10T12:01:30;31.60;30.60
27567;DHT22;15006;48.584;9.186;2023-06-10T12:04:08;31.60;31.70
27567;DHT22;15006;48.584;9.186;2023-06-10T12:06:49;31.70;30.80
27567;DHT22;15006;48.584;9.186;2023-06-10T12:09:24;31.90;30.80
27567;DHT22;15006;48.584;9.186;2023-06-10T12:12:00;32.10;30.00
27567;DHT22;15006;48.584;9.186;2023-06-10T12:14:55;32.30;30.10
27567;DHT22;15006;48.584;9.186;2023-06-10T12:20:00;32.90;29.80
27567;DHT22;15006;48.584;9.186;2023-06-10T12:22:36;33.10;29.50
27567;DHT22;15006;48.584;9.186;2023-06-10T12:25:07;33.30;29.70
27567;DHT22;15006;48.584;9.186;2023-06-10T12:27:34;33.50;29.10
27567;DHT22;15006;48.584;9.186;2023-06-10T12:30:04;33.60;29.00
27567;DHT22;15006;48.584;9.186;2023-06-10T12:32:43;33.70;28.80
27567;DHT22;15006;48.584;9.186;2023-06-10T12:35:12;33.90;27.80
27567;DHT22;15006;48.584;9.186;2023-06-10T12:37:39;33.90;28.20
27567;DHT22;15006;48.584;9.186;2023-06-10T12:40:06;34.00;28.40
27567;DHT22;15006;48.584;9.186;2023-06-10T12:42:38;34.10;28.60
27567;DHT22;15006;48.584;9.186;2023-06-10T12:45:05;34.10;28.10
27567;DHT22;15006;48.584;9.186;2023-06-10T12:47:35;34.20;28.40
27567;DHT22;15006;48.584;9.186;2023-06-10T12:50:04;34.10;28.20
27567;DHT22;15006;48.584;9.186;2023-06-10T12:52:32;34.20;28.90
27567;DHT22;15006;48.584;9.186;2023-06-10T12:54:58;34.20;28.10
27567;DHT22;15006;48.584;9.186;2023-06-10T12:57:26;34.20;27.80
27567;DHT22;15006;48.584;9.186;2023-06-10T12:59:52;33.90;27.70
27567;DHT22;15006;48.584;9.186;2023-06-10T13:02:19;33.90;27.60
27567;DHT22;15006;48.584;9.186;2023-06-10T13:04:46;33.90;28.10
27567;DHT22;15006;48.584;9.186;2023-06-10T13:07:12;33.90;27.80
27567;DHT22;15006;48.584;9.186;2023-06-10T13:09:39;33.90;27.60
27567;DHT22;15006;48.584;9.186;2023-06-10T13:12:07;33.90;27.60
27567;DHT22;15006;48.584;9.186;2023-06-10T13:14:34;34.00;28.50
27567;DHT22;15006;48.584;9.186;2023-06-10T13:17:00;34.00;28.00
27567;DHT22;15006;48.584;9.186;2023-06-10T13:19:26;34.20;27.60
27567;DHT22;15006;48.584;9.186;2023-06-10T13:21:52;34.30;27.80
27567;DHT22;15006;48.584;9.186;2023-06-10T13:24:18;34.40;27.40
27567;DHT22;15006;48.584;9.186;2023-06-10T13:26:46;34.50;27.20
27567;DHT22;15006;48.584;9.186;2023-06-10T13:29:12;34.70;27.30
27567;DHT22;15006;48.584;9.186;2023-06-10T13:31:41;34.80;26.90
27567;DHT22;15006;48.584;9.186;2023-06-10T13:34:08;34.80;27.20
27567;DHT22;15006;48.584;9.186;2023-06-10T13:36:34;34.90;27.30
27567;DHT22;15006;48.584;9.186;2023-06-10T13:39:00;35.00;27.00
27567;DHT22;15006;48.584;9.186;2023-06-10T13:41:26;35.20;26.70
27567;DHT22;15006;48.584;9.186;2023-06-10T13:43:54;35.30;26.70
27567;DHT22;15006;48.584;9.186;2023-06-10T13:46:21;35.50;27.10
27567;DHT22;15006;48.584;9.186;2023-06-10T13:48:47;35.60;27.20
27567;DHT22;15006;48.584;9.186;2023-06-10T13:51:13;35.90;26.80
27567;DHT22;15006;48.584;9.186;2023-06-10T13:53:39;36.10;26.10
27567;DHT22;15006;48.584;9.186;2023-06-10T13:56:05;36.20;25.60
27567;DHT22;15006;48.584;9.186;2023-06-10T13:58:31;36.00;25.10
27567;DHT22;15006;48.584;9.186;2023-06-10T14:00:57;35.70;25.00
27567;DHT22;15006;48.584;9.186;2023-06-10T14:03:24;35.20;25.50
27567;DHT22;15006;48.584;9.186;2023-06-10T14:05:50;34.70;26.10
27567;DHT22;15006;48.584;9.186;2023-06-10T14:08:16;34.30;26.50
27567;DHT22;15006;48.584;9.186;2023-06-10T14:10:43;34.00;26.80
27567;DHT22;15006;48.584;9.186;2023-06-10T14:13:09;33.80;27.30
27567;DHT22;15006;48.584;9.186;2023-06-10T14:15:35;34.00;27.80
27567;DHT22;15006;48.584;9.186;2023-06-10T14:18:01;34.00;27.40
27567;DHT22;15006;48.584;9.186;2023-06-10T14:20:28;34.00;27.10
27567;DHT22;15006;48.584;9.186;2023-06-10T14:22:57;34.10;27.70
27567;DHT22;15006;48.584;9.186;2023-06-10T14:25:24;34.10;27.30
27567;DHT22;15006;48.584;9.186;2023-06-10T14:27:53;34.00;27.10
27567;DHT22;15006;48.584;9.186;2023-06-10T14:30:19;33.80;27.60
27567;DHT22;15006;48.584;9.186;2023-06-10T14:32:46;33.40;27.50
27567;DHT22;15006;48.584;9.186;2023-06-10T14:35:12;33.10;27.50
27567;DHT22;15006;48.584;9.186;2023-06-10T14:37:38;32.70;28.10
27567;DHT22;15006;48.584;9.186;2023-06-10T14:40:05;32.50;29.10
27567;DHT22;15006;48.584;9.186;2023-06-10T14:42:32;32.50;29.00
27567;DHT22;15006;48.584;9.186;2023-06-10T14:44:59;32.60;29.20
27567;DHT22;15006;48.584;9.186;2023-06-10T14:47:25;32.80;28.60
27567;DHT22;15006;48.584;9.186;2023-06-10T14:49:51;33.00;29.10
27567;DHT22;15006;48.584;9.186;2023-06-10T14:52:17;33.30;28.90
27567;DHT22;15006;48.584;9.186;2023-06-10T14:54:43;33.50;28.50
27567;DHT22;15006;48.584;9.186;2023-06-10T14:57:09;33.80;27.90
27567;DHT22;15006;48.584;9.186;2023-06-10T14:59:36;34.20;27.90
27567;DHT22;15006;48.584;9.186;2023-06-10T15:02:02;34.40;27.10
27567;DHT22;15006;48.584;9.186;2023-06-10T15:04:29;34.50;27.00
27567;DHT22;15006;48.584;9.186;2023-06-10T15:06:55;34.30;26.60
27567;DHT22;15006;48.584;9.186;2023-06-10T15:09:22;34.00;26.70
27567;DHT22;15006;48.584;9.186;2023-06-10T15:11:48;33.60;26.80
27567;DHT22;15006;48.584;9.186;2023-06-10T15:14:14;33.10;27.40
27567;DHT22;15006;48.584;9.186;2023-06-10T15:16:40;32.70;27.90
27567;DHT22;15006;48.584;9.186;2023-06-10T15:19:06;32.40;28.00
27567;DHT22;15006;48.584;9.186;2023-06-10T15:21:34;32.10;28.50
27567;DHT22;15006;48.584;9.186;2023-06-10T15:24:00;31.70;29.00
27567;DHT22;15006;48.584;9.186;2023-06-10T15:26:26;31.40;28.90
27567;DHT22;15006;48.584;9.186;2023-06-10T15:28:53;31.20;28.90
27567;DHT22;15006;48.584;9.186;2023-06-10T15:31:19;30.90;30.00
27567;DHT22;15006;48.584;9.186;2023-06-10T15:33:46;30.80;30.30
27567;DHT22;15006;48.584;9.186;2023-06-10T15:36:12;30.80;30.50
27567;DHT22;15006;48.584;9.186;2023-06-10T15:38:39;31.00;30.90
27567;DHT22;15006;48.584;9.186;2023-06-10T15:41:05;31.20;30.90
27567;DHT22;15006;48.584;9.186;2023-06-10T15:43:31;31.40;30.70
27567;DHT22;15006;48.584;9.186;2023-06-10T15:45:57;31.60;30.60
27567;DHT22;15006;48.584;9.186;2023-06-10T15:48:23;31.60;30.40
27567;DHT22;15006;48.584;9.186;2023-06-10T15:50:49;31.50;29.90